createdAt,value
2022-09-28T00:01:44.797Z,8.30
2022-09-28T00:04:12.261Z,8.30
2022-09-28T00:06:39.290Z,8.30
2022-09-28T00:09:06.163Z,8.30
2022-09-28T00:11:33.375Z,8.30
2022-09-28T00:14:02.475Z,8.20
2022-09-28T00:16:34.746Z,8.20
2022-09-28T00:19:02.005Z,8.20
2022-09-28T00:21:31.179Z,8.20
2022-09-28T00:24:18.446Z,8.20
2022-09-28T00:26:50.173Z,8.10
2022-09-28T00:29:19.861Z,8.10
2022-09-28T00:31:46.858Z,8.10
2022-09-28T00:34:13.883Z,8.10
2022-09-28T00:36:43.533Z,8.10
2022-09-28T00:39:10.376Z,8.00
2022-09-28T00:41:37.224Z,8.00
2022-09-28T00:44:23.148Z,7.90
2022-09-28T00:47:13.307Z,8.00
2022-09-28T00:49:43.399Z,7.90
2022-09-28T00:52:13.265Z,7.90
2022-09-28T00:54:40.223Z,7.90
2022-09-28T00:57:07.092Z,7.90
2022-09-28T00:59:33.953Z,7.90
2022-09-28T01:02:01.590Z,7.90
2022-09-28T01:04:30.054Z,7.90
2022-09-28T01:06:57.428Z,7.90
2022-09-28T01:09:24.368Z,7.90
2022-09-28T01:11:51.678Z,7.90
2022-09-28T01:14:19.224Z,7.90
2022-09-28T01:17:01.074Z,7.90
2022-09-28T01:19:55.592Z,7.80
2022-09-28T01:22:34.359Z,7.90
2022-09-28T01:25:12.184Z,7.80
2022-09-28T01:27:44.898Z,7.80
2022-09-28T01:30:19.276Z,7.80
2022-09-28T01:32:55.267Z,7.80
2022-09-28T01:35:36.936Z,7.70
2022-09-28T01:38:06.825Z,7.70
2022-09-28T01:40:33.850Z,7.70
2022-09-28T01:43:09.058Z,7.70
2022-09-28T01:45:49.486Z,7.60
2022-09-28T01:48:19.928Z,7.60
2022-09-28T01:50:46.989Z,7.60
2022-09-28T01:53:24.780Z,7.60
2022-09-28T01:55:57.854Z,7.60
2022-09-28T01:58:32.867Z,7.50
2022-09-28T02:01:13.226Z,7.50
2022-09-28T02:03:43.012Z,7.40
2022-09-28T02:06:13.050Z,7.40
2022-09-28T02:09:09.848Z,7.30
2022-09-28T02:11:37.528Z,7.30
2022-09-28T02:14:09.676Z,7.20
2022-09-28T02:16:47.333Z,7.20
2022-09-28T02:19:18.836Z,7.10
2022-09-28T02:21:58.138Z,7.10
2022-09-28T02:24:46.118Z,7.00
2022-09-28T02:27:23.306Z,7.00
2022-09-28T02:29:50.100Z,6.90
2022-09-28T02:32:17.473Z,6.90
2022-09-28T02:34:44.311Z,6.90
2022-09-28T02:37:11.158Z,6.90
2022-09-28T02:39:37.993Z,6.80
2022-09-28T02:42:24.132Z,6.80
2022-09-28T02:45:10.002Z,6.80
2022-09-28T02:47:55.657Z,6.80
2022-09-28T02:51:00.464Z,6.80
2022-09-28T02:53:47.550Z,6.80
2022-09-28T02:56:33.434Z,6.80
2022-09-28T02:59:39.419Z,6.80
2022-09-28T03:02:21.107Z,6.70
2022-09-28T03:05:06.388Z,6.70
2022-09-28T03:07:39.958Z,6.70
2022-09-28T03:10:37.549Z,6.70
2022-09-28T03:13:04.812Z,6.60
2022-09-28T03:15:33.172Z,6.60
2022-09-28T03:18:00.062Z,6.50
2022-09-28T03:20:27.531Z,6.50
2022-09-28T03:23:19.840Z,6.50
2022-09-28T03:25:41.295Z,6.40
2022-09-28T03:28:08.125Z,6.40
2022-09-28T03:30:34.981Z,6.30
2022-09-28T03:33:02.613Z,6.30
2022-09-28T03:35:29.485Z,6.20
2022-09-28T03:37:56.868Z,6.20
2022-09-28T03:40:23.889Z,6.20
2022-09-28T03:42:50.824Z,6.20
2022-09-28T03:45:17.743Z,6.20
2022-09-28T03:47:47.874Z,6.10
2022-09-28T03:50:14.969Z,6.10
2022-09-28T03:52:43.756Z,6.10
2022-09-28T03:55:11.042Z,6.10
2022-09-28T03:57:38.116Z,6.00
2022-09-28T04:00:05.820Z,6.00
2022-09-28T04:02:33.571Z,6.00
2022-09-28T04:05:00.542Z,5.90
2022-09-28T04:07:30.901Z,6.00
2022-09-28T04:09:58.314Z,6.00
2022-09-28T04:12:25.134Z,6.00
2022-09-28T04:14:52.061Z,6.10
2022-09-28T04:17:18.885Z,6.10
2022-09-28T04:19:45.814Z,6.20
2022-09-28T04:22:12.617Z,6.20
2022-09-28T04:24:39.781Z,6.20
2022-09-28T04:27:25.236Z,6.20
2022-09-28T04:29:52.026Z,6.20
2022-09-28T04:32:18.817Z,6.20
2022-09-28T04:34:45.655Z,6.20
2022-09-28T04:37:12.489Z,6.20
2022-09-28T04:39:42.305Z,6.20
2022-09-28T04:42:12.153Z,6.20
2022-09-28T04:44:38.942Z,6.20
2022-09-28T04:47:05.803Z,6.20
2022-09-28T04:49:35.354Z,6.20
2022-09-28T04:52:02.198Z,6.20
2022-09-28T04:54:29.001Z,6.20
2022-09-28T04:56:55.802Z,6.20
2022-09-28T04:59:22.632Z,6.20
2022-09-28T05:01:49.585Z,6.30
2022-09-28T05:04:16.539Z,6.30
2022-09-28T05:06:43.340Z,6.20
2022-09-28T05:09:10.295Z,6.30
2022-09-28T05:11:37.193Z,6.30
2022-09-28T05:14:04.175Z,6.30
2022-09-28T05:16:33.780Z,6.30
2022-09-28T05:19:00.772Z,6.20
2022-09-28T05:21:29.351Z,6.20
2022-09-28T05:23:56.696Z,6.30
2022-09-28T05:26:23.644Z,6.20
2022-09-28T05:28:51.048Z,6.20
2022-09-28T05:31:17.973Z,6.30
2022-09-28T05:33:44.823Z,6.30
2022-09-28T05:36:11.810Z,6.20
2022-09-28T05:38:38.615Z,6.20
2022-09-28T05:41:06.819Z,6.20
2022-09-28T05:43:33.899Z,6.20
2022-09-28T05:46:00.903Z,6.20
2022-09-28T05:48:28.463Z,6.20
2022-09-28T05:50:55.385Z,6.20
2022-09-28T05:53:22.373Z,6.20
2022-09-28T05:55:49.216Z,6.20
2022-09-28T05:58:16.222Z,6.20
2022-09-28T06:00:43.226Z,6.10
2022-09-28T06:03:13.959Z,6.20
2022-09-28T06:05:40.904Z,6.10
2022-09-28T06:08:10.312Z,6.10
2022-09-28T06:10:37.270Z,6.10
2022-09-28T06:13:04.060Z,6.10
2022-09-28T06:15:31.699Z,6.10
2022-09-28T06:18:06.428Z,6.20
2022-09-28T06:20:34.698Z,6.20
2022-09-28T06:23:01.649Z,6.20
2022-09-28T06:25:28.510Z,6.10
2022-09-28T06:27:58.899Z,6.20
2022-09-28T06:30:27.337Z,6.10
2022-09-28T06:32:58.577Z,6.20
2022-09-28T06:35:26.281Z,6.20
2022-09-28T06:37:53.446Z,6.30
2022-09-28T06:40:20.977Z,6.30
2022-09-28T06:43:09.946Z,6.40
2022-09-28T06:45:37.203Z,6.40
2022-09-28T06:48:04.206Z,6.50
2022-09-28T06:50:33.409Z,6.60
2022-09-28T06:53:00.764Z,6.60
2022-09-28T06:55:28.344Z,6.70
2022-09-28T06:58:02.412Z,6.70
2022-09-28T07:00:31.238Z,6.70
2022-09-28T07:02:58.071Z,6.80
2022-09-28T07:05:27.524Z,6.80
2022-09-28T07:07:55.364Z,6.80
2022-09-28T07:10:27.868Z,6.90
2022-09-28T07:12:55.656Z,6.90
2022-09-28T07:15:22.784Z,7.00
2022-09-28T07:18:00.343Z,7.00
2022-09-28T07:20:28.870Z,7.10
2022-09-28T07:22:57.413Z,7.20
2022-09-28T07:25:26.529Z,7.20
2022-09-28T07:27:57.467Z,7.30
2022-09-28T07:30:26.756Z,7.30
2022-09-28T07:32:54.426Z,7.40
2022-09-28T07:35:21.722Z,7.40
2022-09-28T07:37:48.597Z,7.40
2022-09-28T07:40:34.333Z,7.50
2022-09-28T07:43:05.416Z,7.50
2022-09-28T07:45:35.907Z,7.60
2022-09-28T07:48:03.374Z,7.60
2022-09-28T07:50:30.249Z,7.70
2022-09-28T07:52:57.710Z,7.70
2022-09-28T07:55:24.802Z,7.80
2022-09-28T07:58:01.286Z,8.00
2022-09-28T08:00:33.959Z,8.00
2022-09-28T08:03:01.958Z,8.10
2022-09-28T08:05:32.221Z,8.10
2022-09-28T08:07:59.798Z,8.20
2022-09-28T08:10:26.931Z,8.30
2022-09-28T08:13:00.548Z,8.30
2022-09-28T08:15:34.099Z,8.30
2022-09-28T08:18:02.759Z,8.40
2022-09-28T08:20:51.616Z,8.40
2022-09-28T08:23:18.846Z,8.50
2022-09-28T08:25:49.323Z,8.60
2022-09-28T08:28:17.773Z,8.60
2022-09-28T08:30:45.325Z,8.70
2022-09-28T08:33:17.612Z,8.70
2022-09-28T08:35:45.603Z,8.80
2022-09-28T08:38:13.344Z,8.80
2022-09-28T08:40:50.582Z,8.90
2022-09-28T08:43:40.670Z,8.90
2022-09-28T08:46:07.667Z,9.00
2022-09-28T08:49:01.125Z,9.00
2022-09-28T08:51:39.566Z,9.10
2022-09-28T08:54:11.794Z,9.20
2022-09-28T08:56:50.629Z,9.30
2022-09-28T08:59:25.510Z,9.40
2022-09-28T09:02:03.717Z,9.40
2022-09-28T09:04:31.288Z,9.50
2022-09-28T09:07:17.943Z,9.50
2022-09-28T09:10:13.529Z,9.60
2022-09-28T09:12:43.377Z,9.80
2022-09-28T09:15:48.946Z,9.90
2022-09-28T09:18:26.276Z,10.10
2022-09-28T09:20:57.429Z,10.40
2022-09-28T09:23:30.213Z,10.50
2022-09-28T09:26:00.861Z,10.60
2022-09-28T09:28:43.846Z,10.80
2022-09-28T09:31:37.258Z,11.00
2022-09-28T09:34:09.689Z,11.30
2022-09-28T09:37:00.249Z,11.40
2022-09-28T09:39:57.948Z,11.50
2022-09-28T09:42:48.168Z,11.70
2022-09-28T09:45:39.810Z,11.80
2022-09-28T09:48:24.439Z,11.90
2022-09-28T09:50:57.951Z,12.00
2022-09-28T09:53:28.909Z,12.10
2022-09-28T09:56:01.696Z,12.10
2022-09-28T09:58:28.511Z,12.10
2022-09-28T10:00:55.687Z,12.10
2022-09-28T10:03:28.309Z,12.10
2022-09-28T10:05:58.425Z,12.20
2022-09-28T10:08:25.320Z,12.10
2022-09-28T10:10:54.287Z,12.10
2022-09-28T10:13:21.073Z,12.10
2022-09-28T10:15:48.168Z,12.20
2022-09-28T10:18:16.197Z,12.20
2022-09-28T10:20:43.784Z,12.20
2022-09-28T10:23:30.847Z,12.30
2022-09-28T10:26:02.417Z,12.40
2022-09-28T10:28:49.642Z,12.50
2022-09-28T10:31:36.414Z,12.40
2022-09-28T10:34:04.618Z,12.30
2022-09-28T10:36:38.351Z,12.30
2022-09-28T10:39:06.107Z,12.30
2022-09-28T10:41:33.031Z,12.20
2022-09-28T10:44:10.711Z,12.30
2022-09-28T10:46:38.586Z,12.40
2022-09-28T10:49:09.619Z,12.40
2022-09-28T10:51:50.069Z,12.60
2022-09-28T10:54:25.331Z,12.80
2022-09-28T10:56:53.252Z,13.10
2022-09-28T10:59:29.954Z,13.10
2022-09-28T11:02:01.754Z,13.20
2022-09-28T11:04:32.288Z,13.20
2022-09-28T11:07:01.853Z,13.20
2022-09-28T11:09:33.434Z,13.30
2022-09-28T11:12:00.917Z,13.30
2022-09-28T11:14:30.074Z,13.30
2022-09-28T11:17:25.386Z,13.30
2022-09-28T11:19:53.868Z,13.30
2022-09-28T11:22:24.785Z,13.40
2022-09-28T11:24:51.898Z,13.40
2022-09-28T11:27:25.659Z,13.40
2022-09-28T11:29:58.869Z,13.40
2022-09-28T11:32:30.504Z,13.30
2022-09-28T11:35:00.162Z,13.30
2022-09-28T11:38:05.257Z,13.40
2022-09-28T11:40:46.215Z,13.40
2022-09-28T11:43:33.226Z,13.50
2022-09-28T11:46:47.990Z,13.60
2022-09-28T11:49:37.696Z,13.60
2022-09-28T11:52:11.934Z,13.70
2022-09-28T11:54:48.615Z,13.70
2022-09-28T11:57:17.837Z,13.70
2022-09-28T12:00:06.418Z,13.70
2022-09-28T12:02:49.836Z,13.70
2022-09-28T12:05:20.923Z,13.80
2022-09-28T12:08:09.511Z,13.80
2022-09-28T12:10:45.589Z,13.90
2022-09-28T12:13:17.511Z,14.10
2022-09-28T12:18:53.049Z,14.20
2022-09-28T12:21:32.034Z,14.20
2022-09-28T12:24:31.455Z,14.10
2022-09-28T12:27:10.406Z,14.20
2022-09-28T12:30:25.840Z,14.30
2022-09-28T12:32:56.412Z,14.40
2022-09-28T12:35:49.567Z,14.40
2022-09-28T12:38:16.419Z,14.60
2022-09-28T12:40:50.028Z,14.70
2022-09-28T12:43:45.121Z,14.70
2022-09-28T12:46:16.158Z,14.70
2022-09-28T12:49:04.181Z,14.70
2022-09-28T12:51:52.425Z,14.70
2022-09-28T12:54:19.330Z,14.60
2022-09-28T12:57:24.559Z,14.70
2022-09-28T13:00:10.068Z,14.80
2022-09-28T13:02:53.474Z,14.80
2022-09-28T13:05:35.784Z,14.90
2022-09-28T13:08:09.452Z,14.90
2022-09-28T13:10:46.793Z,15.00
2022-09-28T13:13:38.531Z,15.00
2022-09-28T13:16:17.701Z,15.00
2022-09-28T13:18:57.583Z,15.00
2022-09-28T13:21:41.795Z,15.10
2022-09-28T13:24:31.121Z,15.20
2022-09-28T13:26:59.702Z,15.20
2022-09-28T13:29:27.205Z,15.20
2022-09-28T13:31:58.380Z,15.20
2022-09-28T13:34:29.339Z,15.20
2022-09-28T13:37:17.273Z,15.20
2022-09-28T13:39:52.056Z,15.20
2022-09-28T13:42:47.467Z,15.10
2022-09-28T13:45:42.090Z,15.10
2022-09-28T13:48:15.823Z,14.90
2022-09-28T13:51:10.746Z,14.90
2022-09-28T13:54:03.325Z,14.70
2022-09-28T13:56:49.277Z,14.60
2022-09-28T13:59:29.045Z,14.50
2022-09-28T14:02:21.228Z,14.50
2022-09-28T14:05:05.685Z,14.50
2022-09-28T14:07:35.606Z,14.50
2022-09-28T14:10:20.520Z,14.60
2022-09-28T14:12:49.286Z,14.60
2022-09-28T14:15:37.499Z,14.70
2022-09-28T14:18:14.658Z,14.70
2022-09-28T14:20:47.041Z,14.70
2022-09-28T14:23:21.058Z,14.80
2022-09-28T14:26:41.983Z,14.80
2022-09-28T14:29:31.438Z,14.80
2022-09-28T14:31:58.707Z,14.80
2022-09-28T14:34:46.866Z,14.90
2022-09-28T14:37:40.704Z,14.90
2022-09-28T14:40:50.428Z,15.00
2022-09-28T14:43:24.226Z,15.10
2022-09-28T14:45:54.669Z,15.10
2022-09-28T14:48:22.710Z,15.20
2022-09-28T14:50:52.871Z,15.20
2022-09-28T14:53:23.996Z,15.20
2022-09-28T14:55:54.571Z,15.20
2022-09-28T14:58:24.048Z,15.20
2022-09-28T15:00:52.659Z,15.20
2022-09-28T15:03:19.880Z,15.20
2022-09-28T15:05:49.877Z,15.20
2022-09-28T15:08:20.763Z,15.20
2022-09-28T15:10:49.456Z,15.20
2022-09-28T15:13:26.817Z,15.20
2022-09-28T15:16:11.574Z,15.20
2022-09-28T15:18:49.020Z,15.10
2022-09-28T15:21:16.478Z,15.00
2022-09-28T15:23:44.254Z,15.00
2022-09-28T15:26:23.291Z,14.90
2022-09-28T15:28:50.113Z,14.80
2022-09-28T15:31:22.485Z,14.80
2022-09-28T15:34:07.868Z,14.80
2022-09-28T15:36:40.375Z,14.70
2022-09-28T15:39:22.337Z,14.60
2022-09-28T15:41:49.707Z,14.40
2022-09-28T15:44:16.632Z,14.20
2022-09-28T15:46:52.106Z,14.10
2022-09-28T15:49:26.792Z,14.00
2022-09-28T15:51:55.673Z,13.90
2022-09-28T15:54:27.667Z,13.90
2022-09-28T15:56:57.878Z,13.80
2022-09-28T15:59:31.803Z,13.70
2022-09-28T16:02:26.130Z,13.70
2022-09-28T16:04:55.308Z,13.70
2022-09-28T16:07:37.110Z,13.60
2022-09-28T16:10:12.757Z,13.60
2022-09-28T16:12:48.738Z,13.60
2022-09-28T16:15:21.543Z,13.60
2022-09-28T16:17:55.414Z,13.60
2022-09-28T16:20:40.981Z,13.50
2022-09-28T16:23:16.998Z,13.50
2022-09-28T16:25:52.605Z,13.50
2022-09-28T16:28:38.665Z,13.50
2022-09-28T16:31:27.483Z,13.40
2022-09-28T16:33:59.362Z,13.50
2022-09-28T16:36:29.922Z,13.50
2022-09-28T16:38:56.820Z,13.40
2022-09-28T16:41:26.381Z,13.40
2022-09-28T16:43:55.275Z,13.50
2022-09-28T16:46:22.263Z,13.40
2022-09-28T16:48:50.120Z,13.40
2022-09-28T16:51:18.189Z,13.40
2022-09-28T16:54:03.909Z,13.40
2022-09-28T16:56:33.845Z,13.40
2022-09-28T16:59:02.282Z,13.30
2022-09-28T17:01:32.076Z,13.30
2022-09-28T17:03:58.931Z,13.30
2022-09-28T17:06:25.777Z,13.20
2022-09-28T17:08:58.452Z,13.20
2022-09-28T17:11:25.431Z,13.10
2022-09-28T17:13:53.667Z,13.10
2022-09-28T17:16:32.602Z,13.00
2022-09-28T17:19:23.759Z,12.90
2022-09-28T17:21:52.210Z,12.80
2022-09-28T17:24:19.578Z,12.80
2022-09-28T17:26:47.219Z,12.70
2022-09-28T17:29:14.741Z,12.60
2022-09-28T17:31:45.247Z,12.60
2022-09-28T17:34:13.458Z,12.50
2022-09-28T17:36:41.773Z,12.40
2022-09-28T17:39:16.019Z,12.30
2022-09-28T17:41:42.909Z,12.30
2022-09-28T17:44:09.813Z,12.20
2022-09-28T17:46:37.715Z,12.10
2022-09-28T17:49:05.694Z,12.00
2022-09-28T17:51:34.741Z,12.00
2022-09-28T17:54:01.906Z,11.90
2022-09-28T17:56:32.084Z,11.80
2022-09-28T17:59:06.751Z,11.80
2022-09-28T18:01:34.674Z,11.70
2022-09-28T18:04:03.228Z,11.60
2022-09-28T18:06:30.091Z,11.60
2022-09-28T18:08:56.940Z,11.50
2022-09-28T18:11:23.783Z,11.40
2022-09-28T18:13:50.682Z,11.40
2022-09-28T18:16:17.619Z,11.30
2022-09-28T18:18:44.538Z,11.20
2022-09-28T18:21:11.589Z,11.10
2022-09-28T18:23:38.653Z,11.10
2022-09-28T18:26:12.467Z,11.00
2022-09-28T18:28:39.624Z,11.00
2022-09-28T18:31:13.730Z,10.90
2022-09-28T18:33:40.847Z,10.80
2022-09-28T18:36:07.864Z,10.70
2022-09-28T18:38:37.922Z,10.60
2022-09-28T18:41:09.237Z,10.60
2022-09-28T18:43:36.835Z,10.50
2022-09-28T18:46:10.313Z,10.50
2022-09-28T18:48:38.125Z,10.40
2022-09-28T18:51:08.244Z,10.40
2022-09-28T18:53:35.461Z,10.30
2022-09-28T18:56:07.958Z,10.20
2022-09-28T18:58:36.074Z,10.10
2022-09-28T19:01:30.702Z,10.10
2022-09-28T19:04:01.881Z,10.10
2022-09-28T19:06:28.970Z,10.10
2022-09-28T19:08:56.218Z,10.00
2022-09-28T19:11:23.282Z,10.00
2022-09-28T19:13:50.488Z,9.90
2022-09-28T19:16:18.921Z,9.90
2022-09-28T19:18:45.842Z,9.80
2022-09-28T19:21:13.579Z,9.80
2022-09-28T19:23:40.928Z,9.70
2022-09-28T19:26:15.610Z,9.70
2022-09-28T19:28:42.569Z,9.60
2022-09-28T19:31:09.585Z,9.60
2022-09-28T19:33:36.998Z,9.50
2022-09-28T19:36:06.149Z,9.50
2022-09-28T19:38:33.796Z,9.40
2022-09-28T19:41:00.841Z,9.30
2022-09-28T19:43:27.940Z,9.30
2022-09-28T19:45:56.019Z,9.30
2022-09-28T19:48:26.706Z,9.20
2022-09-28T19:50:58.578Z,9.20
2022-09-28T19:53:30.735Z,9.10
2022-09-28T19:55:58.533Z,9.10
2022-09-28T19:58:28.657Z,9.00
2022-09-28T20:00:55.497Z,9.00
2022-09-28T20:03:22.438Z,8.90
2022-09-28T20:05:49.477Z,8.90
2022-09-28T20:08:16.421Z,8.80
2022-09-28T20:10:56.764Z,8.90
2022-09-28T20:13:24.593Z,8.90
2022-09-28T20:15:51.565Z,8.90
2022-09-28T20:18:19.187Z,8.80
2022-09-28T20:20:46.002Z,8.80
2022-09-28T20:23:12.921Z,8.80
2022-09-28T20:25:39.823Z,8.70
2022-09-28T20:28:06.679Z,8.70
2022-09-28T20:30:33.584Z,8.60
2022-09-28T20:33:00.380Z,8.60
2022-09-28T20:35:33.036Z,8.50
2022-09-28T20:38:07.923Z,8.50
2022-09-28T20:40:36.614Z,8.40
2022-09-28T20:43:06.473Z,8.40
2022-09-28T20:45:35.369Z,8.30
2022-09-28T20:48:04.665Z,8.30
2022-09-28T20:50:31.607Z,8.30
2022-09-28T20:52:58.448Z,8.30
2022-09-28T20:55:25.327Z,8.20
2022-09-28T20:57:52.191Z,8.20
2022-09-28T21:00:19.126Z,8.20
2022-09-28T21:02:46.522Z,8.10
2022-09-28T21:05:13.469Z,8.10
2022-09-28T21:07:40.317Z,8.00
2022-09-28T21:10:09.206Z,8.00
2022-09-28T21:12:37.017Z,7.90
2022-09-28T21:15:06.055Z,7.90
2022-09-28T21:17:33.114Z,7.90
2022-09-28T21:19:59.921Z,7.90
2022-09-28T21:22:28.611Z,7.80
2022-09-28T21:24:55.536Z,7.80
2022-09-28T21:27:22.441Z,7.80
2022-09-28T21:29:49.262Z,7.80
2022-09-28T21:32:16.139Z,7.70
2022-09-28T21:34:42.957Z,7.70
2022-09-28T21:37:09.872Z,7.70
2022-09-28T21:39:37.077Z,7.60
2022-09-28T21:42:04.089Z,7.60
2022-09-28T21:44:34.764Z,7.60
2022-09-28T21:47:01.662Z,7.60
2022-09-28T21:49:28.513Z,7.50
2022-09-28T21:51:55.475Z,7.50
2022-09-28T21:54:22.308Z,7.50
2022-09-28T21:56:49.120Z,7.50
2022-09-28T21:59:15.940Z,7.40
2022-09-28T22:01:43.418Z,7.40
2022-09-28T22:04:10.267Z,7.30
2022-09-28T22:06:37.099Z,7.30
2022-09-28T22:09:03.993Z,7.30
2022-09-28T22:11:31.006Z,7.30
2022-09-28T22:13:58.863Z,7.30
2022-09-28T22:16:28.637Z,7.30
2022-09-28T22:18:55.436Z,7.20
2022-09-28T22:21:23.991Z,7.20
2022-09-28T22:23:51.106Z,7.10
2022-09-28T22:26:23.510Z,7.10
2022-09-28T22:28:58.410Z,7.10
2022-09-28T22:31:27.386Z,7.10
2022-09-28T22:33:54.490Z,7.00
2022-09-28T22:36:21.457Z,7.00
2022-09-28T22:38:48.405Z,6.90
2022-09-28T22:41:16.417Z,6.90
2022-09-28T22:43:44.547Z,6.90
2022-09-28T22:46:16.666Z,6.90
2022-09-28T22:48:56.667Z,6.80
2022-09-28T22:51:24.564Z,6.80
2022-09-28T22:53:51.357Z,6.70
2022-09-28T22:56:19.174Z,6.80
2022-09-28T22:58:46.394Z,6.80
2022-09-28T23:01:17.901Z,6.80
2022-09-28T23:03:44.976Z,6.70
2022-09-28T23:06:13.051Z,6.70
2022-09-28T23:08:40.062Z,6.70
2022-09-28T23:11:06.914Z,6.60
2022-09-28T23:13:33.916Z,6.60
2022-09-28T23:16:19.178Z,6.60
2022-09-28T23:18:46.192Z,6.60
2022-09-28T23:21:15.404Z,6.50
2022-09-28T23:23:43.068Z,6.50
2022-09-28T23:26:14.408Z,6.50
2022-09-28T23:28:41.286Z,6.50
2022-09-28T23:31:13.824Z,6.50
2022-09-28T23:33:40.769Z,6.40
2022-09-28T23:36:08.066Z,6.40
2022-09-28T23:38:35.006Z,6.40
2022-09-28T23:41:01.975Z,6.40
2022-09-28T23:43:29.057Z,6.30
2022-09-28T23:45:55.869Z,6.30
2022-09-28T23:48:22.723Z,6.30
2022-09-28T23:50:49.529Z,6.30
2022-09-28T23:53:16.351Z,6.20
2022-09-28T23:55:43.376Z,6.20
2022-09-28T23:58:11.005Z,6.20
